createdAt,value
2022-09-17T00:00:52.432Z,100521.03
2022-09-17T00:03:18.877Z,100519.38
2022-09-17T00:05:45.379Z,100528.13
2022-09-17T00:08:14.955Z,100527.19
2022-09-17T00:10:44.188Z,100519.38
2022-09-17T00:13:11.430Z,100523.63
2022-09-17T00:15:45.738Z,100522.81
2022-09-17T00:18:16.843Z,100527.22
2022-09-17T00:20:45.603Z,100524.44
2022-09-17T00:23:13.396Z,100523.56
2022-09-17T00:25:44.397Z,100533.19
2022-09-17T00:28:12.427Z,100535.84
2022-09-17T00:30:44.124Z,100532.34
2022-09-17T00:33:16.255Z,100530.56
2022-09-17T00:35:43.549Z,100533.16
2022-09-17T00:38:10.597Z,100537.56
2022-09-17T00:40:37.343Z,100534.09
2022-09-17T00:43:04.233Z,100541.91
2022-09-17T00:45:32.132Z,100547.09
2022-09-17T00:48:01.906Z,100538.66
2022-09-17T00:50:33.906Z,100547.53
2022-09-17T00:53:11.971Z,100549.44
2022-09-17T00:55:42.493Z,100551.25
2022-09-17T00:58:11.617Z,100551.31
2022-09-17T01:00:38.607Z,100555.75
2022-09-17T01:03:05.151Z,100563.72
2022-09-17T01:05:44.017Z,100552.31
2022-09-17T01:08:17.682Z,100560.25
2022-09-17T01:10:58.891Z,100559.25
2022-09-17T01:13:47.116Z,100554.13
2022-09-17T01:16:27.285Z,100541.03
2022-09-17T01:19:31.259Z,100549.75
2022-09-17T01:22:08.323Z,100548.00
2022-09-17T01:24:43.849Z,100542.72
2022-09-17T01:27:19.437Z,100553.19
2022-09-17T01:30:22.536Z,100552.28
2022-09-17T01:33:09.104Z,100566.28
2022-09-17T01:35:54.894Z,100554.88
2022-09-17T01:38:38.836Z,100562.72
2022-09-17T01:41:15.547Z,100556.63
2022-09-17T01:44:12.971Z,100554.88
2022-09-17T01:46:49.380Z,100558.38
2022-09-17T01:49:16.833Z,100553.19
2022-09-17T01:51:48.538Z,100552.25
2022-09-17T01:54:23.737Z,100558.41
2022-09-17T01:57:09.143Z,100550.56
2022-09-17T01:59:45.757Z,100554.06
2022-09-17T02:02:22.168Z,100560.13
2022-09-17T02:04:58.491Z,100556.66
2022-09-17T02:07:25.972Z,100557.56
2022-09-17T02:10:05.137Z,100571.50
2022-09-17T02:12:38.237Z,100558.38
2022-09-17T02:15:10.052Z,100559.19
2022-09-17T02:17:46.272Z,100562.69
2022-09-17T02:20:13.536Z,100561.00
2022-09-17T02:22:45.047Z,100564.50
2022-09-17T02:25:25.398Z,100566.22
2022-09-17T02:28:03.477Z,100565.38
2022-09-17T02:30:32.095Z,100567.09
2022-09-17T02:33:00.573Z,100564.44
2022-09-17T02:35:27.088Z,100571.47
2022-09-17T02:37:53.512Z,100567.97
2022-09-17T02:40:24.020Z,100567.88
2022-09-17T02:42:59.399Z,100560.00
2022-09-17T02:45:41.022Z,100564.44
2022-09-17T02:48:18.958Z,100558.22
2022-09-17T02:50:59.038Z,100563.44
2022-09-17T02:53:38.204Z,100561.66
2022-09-17T02:56:40.367Z,100564.38
2022-09-17T02:59:21.738Z,100573.00
2022-09-17T03:02:00.166Z,100579.13
2022-09-17T03:04:29.481Z,100571.31
2022-09-17T03:06:56.566Z,100572.19
2022-09-17T03:09:23.020Z,100574.00
2022-09-17T03:11:49.459Z,100574.91
2022-09-17T03:14:15.946Z,100591.50
2022-09-17T03:16:42.438Z,100576.63
2022-09-17T03:19:08.867Z,100574.03
2022-09-17T03:21:35.272Z,100574.97
2022-09-17T03:24:01.983Z,100584.59
2022-09-17T03:26:28.395Z,100585.44
2022-09-17T03:28:54.795Z,100578.50
2022-09-17T03:31:21.322Z,100586.31
2022-09-17T03:33:48.420Z,100575.84
2022-09-17T03:36:14.826Z,100569.75
2022-09-17T03:38:41.434Z,100581.06
2022-09-17T03:41:07.988Z,100568.88
2022-09-17T03:43:34.902Z,100577.59
2022-09-17T03:46:01.566Z,100579.34
2022-09-17T03:48:29.532Z,100581.94
2022-09-17T03:50:56.337Z,100586.25
2022-09-17T03:53:22.752Z,100586.31
2022-09-17T03:55:49.490Z,100574.91
2022-09-17T03:58:15.889Z,100576.66
2022-09-17T04:00:43.463Z,100583.56
2022-09-17T04:03:09.867Z,100580.97
2022-09-17T04:05:36.354Z,100590.56
2022-09-17T04:08:02.750Z,100590.56
2022-09-17T04:10:29.283Z,100591.44
2022-09-17T04:12:55.729Z,100587.09
2022-09-17T04:15:22.128Z,100585.38
2022-09-17T04:17:48.763Z,100594.94
2022-09-17T04:20:15.189Z,100592.28
2022-09-17T04:22:41.909Z,100597.50
2022-09-17T04:25:08.596Z,100601.91
2022-09-17T04:27:35.028Z,100601.84
2022-09-17T04:30:01.693Z,100604.44
2022-09-17T04:32:28.256Z,100615.78
2022-09-17T04:34:54.623Z,100605.34
2022-09-17T04:37:21.839Z,100613.19
2022-09-17T04:39:48.270Z,100612.31
2022-09-17T04:42:15.881Z,100605.34
2022-09-17T04:44:42.406Z,100600.09
2022-09-17T04:47:08.812Z,100616.78
2022-09-17T04:49:35.214Z,100613.34
2022-09-17T04:52:01.857Z,100611.59
2022-09-17T04:54:28.283Z,100614.28
2022-09-17T04:56:54.676Z,100612.56
2022-09-17T04:59:21.092Z,100619.63
2022-09-17T05:01:47.585Z,100611.84
2022-09-17T05:04:14.000Z,100619.69
2022-09-17T05:06:40.434Z,100627.56
2022-09-17T05:09:07.106Z,100622.38
2022-09-17T05:11:34.030Z,100632.03
2022-09-17T05:14:00.885Z,100628.53
2022-09-17T05:16:27.518Z,100631.13
2022-09-17T05:18:54.134Z,100631.19
2022-09-17T05:21:20.602Z,100638.19
2022-09-17T05:23:47.973Z,100625.97
2022-09-17T05:26:14.396Z,100626.84
2022-09-17T05:28:40.971Z,100625.97
2022-09-17T05:31:07.465Z,100628.56
2022-09-17T05:33:34.441Z,100629.44
2022-09-17T05:36:01.172Z,100625.94
2022-09-17T05:38:27.578Z,100643.41
2022-09-17T05:40:54.002Z,100648.63
2022-09-17T05:43:20.572Z,100639.94
2022-09-17T05:45:47.003Z,100660.88
2022-09-17T05:48:15.062Z,100664.34
2022-09-17T05:50:41.617Z,100665.13
2022-09-17T05:53:12.321Z,100670.31
2022-09-17T05:55:39.136Z,100666.78
2022-09-17T05:58:11.138Z,100658.00
2022-09-17T06:00:37.573Z,100667.63
2022-09-17T06:03:04.076Z,100674.56
2022-09-17T06:05:30.612Z,100676.19
2022-09-17T06:07:57.021Z,100677.03
2022-09-17T06:10:23.470Z,100683.16
2022-09-17T06:12:56.031Z,100677.91
2022-09-17T06:15:22.604Z,100685.75
2022-09-17T06:17:49.017Z,100683.13
2022-09-17T06:20:16.349Z,100676.13
2022-09-17T06:22:43.194Z,100678.69
2022-09-17T06:25:09.682Z,100691.69
2022-09-17T06:27:36.283Z,100689.19
2022-09-17T06:30:02.780Z,100687.38
2022-09-17T06:32:29.536Z,100682.97
2022-09-17T06:34:57.297Z,100681.22
2022-09-17T06:37:31.712Z,100696.97
2022-09-17T06:40:01.782Z,100691.75
2022-09-17T06:42:29.002Z,100702.22
2022-09-17T06:44:55.426Z,100698.78
2022-09-17T06:47:24.603Z,100703.13
2022-09-17T06:49:51.627Z,100700.53
2022-09-17T06:52:18.235Z,100703.16
2022-09-17T06:54:44.711Z,100701.34
2022-09-17T06:57:11.199Z,100700.44
2022-09-17T06:59:37.604Z,100704.81
2022-09-17T07:02:04.138Z,100707.41
2022-09-17T07:04:30.641Z,100705.69
2022-09-17T07:06:57.049Z,100713.53
2022-09-17T07:09:23.508Z,100727.44
2022-09-17T07:11:49.902Z,100723.06
2022-09-17T07:14:16.327Z,100724.81
2022-09-17T07:16:42.792Z,100716.97
2022-09-17T07:19:09.228Z,100710.84
2022-09-17T07:21:35.759Z,100713.44
2022-09-17T07:24:02.376Z,100706.41
2022-09-17T07:26:28.830Z,100708.09
2022-09-17T07:28:55.234Z,100699.28
2022-09-17T07:31:21.712Z,100695.66
2022-09-17T07:33:48.140Z,100694.66
2022-09-17T07:36:17.981Z,100693.66
2022-09-17T07:38:44.856Z,100699.50
2022-09-17T07:41:15.966Z,100694.97
2022-09-17T07:43:43.510Z,100687.84
2022-09-17T07:46:15.522Z,100699.03
2022-09-17T07:48:42.145Z,100694.50
2022-09-17T07:51:08.653Z,100696.16
2022-09-17T07:53:35.493Z,100705.69
2022-09-17T07:56:02.173Z,100703.81
2022-09-17T07:58:31.290Z,100701.06
2022-09-17T08:01:07.101Z,100694.91
2022-09-17T08:03:34.642Z,100688.72
2022-09-17T08:06:06.501Z,100688.72
2022-09-17T08:08:36.080Z,100698.94
2022-09-17T08:11:09.512Z,100683.97
2022-09-17T08:13:36.882Z,100694.13
2022-09-17T08:16:15.651Z,100709.59
2022-09-17T08:18:43.885Z,100699.84
2022-09-17T08:21:13.665Z,100695.16
2022-09-17T08:23:42.252Z,100690.09
2022-09-17T08:26:14.327Z,100697.19
2022-09-17T08:28:45.897Z,100691.72
2022-09-17T08:31:12.844Z,100703.88
2022-09-17T08:33:41.013Z,100698.44
2022-09-17T08:36:10.573Z,100697.44
2022-09-17T08:38:38.460Z,100713.06
2022-09-17T08:41:19.684Z,100695.63
2022-09-17T08:43:58.522Z,100700.88
2022-09-17T08:46:26.805Z,100706.84
2022-09-17T08:49:33.916Z,100707.63
2022-09-17T08:52:31.472Z,100706.69
2022-09-17T08:55:29.362Z,100713.44
2022-09-17T08:58:02.161Z,100704.50
2022-09-17T09:00:40.176Z,100701.88
2022-09-17T09:03:32.658Z,100703.84
2022-09-17T09:06:01.424Z,100707.47
2022-09-17T09:08:35.484Z,100706.38
2022-09-17T09:11:05.652Z,100700.78
2022-09-17T09:13:45.432Z,100709.56
2022-09-17T09:16:23.001Z,100701.53
2022-09-17T09:18:59.664Z,100711.03
2022-09-17T09:21:32.311Z,100710.88
2022-09-17T09:24:07.803Z,100703.81
2022-09-17T09:26:44.870Z,100701.16
2022-09-17T09:29:17.532Z,100701.13
2022-09-17T09:32:15.583Z,100703.81
2022-09-17T09:34:42.728Z,100690.03
2022-09-17T09:37:21.821Z,100693.34
2022-09-17T09:39:51.967Z,100700.91
2022-09-17T09:42:32.210Z,100691.06
2022-09-17T09:45:05.200Z,100698.13
2022-09-17T09:47:40.918Z,100695.44
2022-09-17T09:50:31.579Z,100703.94
2022-09-17T09:53:28.594Z,100696.69
2022-09-17T09:56:06.443Z,100691.38
2022-09-17T09:58:40.758Z,100688.13
2022-09-17T10:01:22.220Z,100697.31
2022-09-17T10:03:51.993Z,100705.53
2022-09-17T10:06:22.297Z,100687.44
2022-09-17T10:08:54.904Z,100683.38
2022-09-17T10:11:23.235Z,100695.72
2022-09-17T10:13:50.106Z,100692.03
2022-09-17T10:16:21.051Z,100698.28
2022-09-17T10:18:49.518Z,100685.19
2022-09-17T10:21:42.836Z,100680.97
2022-09-17T10:24:25.857Z,100677.72
2022-09-17T10:27:00.300Z,100681.56
2022-09-17T10:29:27.036Z,100673.63
2022-09-17T10:31:58.075Z,100669.06
2022-09-17T10:34:27.257Z,100669.59
2022-09-17T10:36:56.054Z,100658.88
2022-09-17T10:39:36.323Z,100675.31
2022-09-17T10:42:02.793Z,100667.47
2022-09-17T10:44:34.665Z,100667.34
2022-09-17T10:47:21.065Z,100674.97
2022-09-17T10:49:53.769Z,100677.88
2022-09-17T10:52:26.142Z,100674.91
2022-09-17T10:54:58.407Z,100672.16
2022-09-17T10:57:36.871Z,100649.88
2022-09-17T11:00:09.140Z,100655.69
2022-09-17T11:02:53.918Z,100649.38
2022-09-17T11:05:33.059Z,100651.72
2022-09-17T11:08:08.403Z,100650.88
2022-09-17T11:11:03.268Z,100655.00
2022-09-17T11:14:06.172Z,100656.75
2022-09-17T11:16:47.300Z,100656.91
2022-09-17T11:19:48.289Z,100651.13
2022-09-17T11:22:39.870Z,100649.13
2022-09-17T11:25:37.449Z,100641.94
2022-09-17T11:28:21.497Z,100642.72
2022-09-17T11:31:06.706Z,100655.91
2022-09-17T11:34:01.488Z,100640.03
2022-09-17T11:36:46.433Z,100652.25
2022-09-17T11:39:27.386Z,100645.19
2022-09-17T11:41:56.143Z,100669.69
2022-09-17T11:44:31.376Z,100661.19
2022-09-17T11:47:13.629Z,100685.13
2022-09-17T11:50:04.750Z,100679.03
2022-09-17T11:52:41.342Z,100692.34
2022-09-17T11:55:33.627Z,100706.00
2022-09-17T11:58:07.842Z,100709.97
2022-09-17T12:00:40.463Z,100707.78
2022-09-17T12:03:21.058Z,100698.19
2022-09-17T12:05:58.392Z,100704.09
2022-09-17T12:08:44.290Z,100707.00
2022-09-17T12:11:27.191Z,100688.66
2022-09-17T12:14:41.649Z,100698.41
2022-09-17T12:17:17.015Z,100687.91
2022-09-17T12:19:54.216Z,100691.19
2022-09-17T12:22:32.129Z,100695.09
2022-09-17T12:25:01.018Z,100691.94
2022-09-17T12:27:35.420Z,100687.13
2022-09-17T12:30:25.770Z,100691.69
2022-09-17T12:33:18.134Z,100709.31
2022-09-17T12:36:06.490Z,100702.97
2022-09-17T12:38:44.926Z,100721.38
2022-09-17T12:41:29.559Z,100730.78
2022-09-17T12:44:04.137Z,100696.56
2022-09-17T12:46:58.299Z,100731.00
2022-09-17T12:50:03.202Z,100716.22
2022-09-17T12:53:11.659Z,100702.44
2022-09-17T12:55:44.347Z,100699.03
2022-09-17T12:58:29.491Z,100693.31
2022-09-17T13:01:03.743Z,100686.31
2022-09-17T13:03:55.980Z,100682.75
2022-09-17T13:06:47.323Z,100670.34
2022-09-17T13:10:08.011Z,100667.66
2022-09-17T13:12:45.397Z,100658.88
2022-09-17T13:15:39.878Z,100662.03
2022-09-17T13:18:30.886Z,100646.88
2022-09-17T13:21:25.516Z,100648.63
2022-09-17T13:23:53.659Z,100640.66
2022-09-17T13:26:23.501Z,100632.81
2022-09-17T13:28:51.965Z,100629.06
2022-09-17T13:31:34.587Z,100639.47
2022-09-17T13:34:02.708Z,100647.25
2022-09-17T13:36:44.599Z,100647.75
2022-09-17T13:39:40.721Z,100639.72
2022-09-17T13:42:15.080Z,100646.56
2022-09-17T13:44:45.933Z,100629.84
2022-09-17T13:47:18.675Z,100622.59
2022-09-17T13:49:50.541Z,100618.84
2022-09-17T13:52:32.424Z,100624.66
2022-09-17T13:54:59.326Z,100617.63
2022-09-17T13:57:27.074Z,100624.19
2022-09-17T13:59:59.419Z,100618.69
2022-09-17T14:02:32.250Z,100636.97
2022-09-17T14:05:25.309Z,100637.94
2022-09-17T14:08:05.860Z,100659.47
2022-09-17T14:10:40.849Z,100714.81
2022-09-17T14:13:48.386Z,100755.28
2022-09-17T14:16:40.466Z,100728.09
2022-09-17T14:19:16.027Z,100711.66
2022-09-17T14:21:44.360Z,100697.78
2022-09-17T14:24:44.280Z,100687.81
2022-09-17T14:27:25.939Z,100687.63
2022-09-17T14:30:04.415Z,100682.09
2022-09-17T14:32:55.935Z,100682.63
2022-09-17T14:35:41.534Z,100685.97
2022-09-17T14:38:16.760Z,100687.53
2022-09-17T14:40:49.827Z,100704.19
2022-09-17T14:43:52.174Z,100691.22
2022-09-17T14:46:40.563Z,100676.31
2022-09-17T14:49:22.843Z,100663.91
2022-09-17T14:51:51.034Z,100665.41
2022-09-17T14:54:32.383Z,100674.06
2022-09-17T14:57:22.119Z,100671.31
2022-09-17T14:59:55.730Z,100656.34
2022-09-17T15:02:22.129Z,100658.88
2022-09-17T15:04:48.525Z,100655.25
2022-09-17T15:07:15.087Z,100657.78
2022-09-17T15:09:41.513Z,100663.63
2022-09-17T15:12:08.087Z,100663.59
2022-09-17T15:14:39.133Z,100654.50
2022-09-17T15:17:06.919Z,100657.09
2022-09-17T15:19:36.474Z,100655.28
2022-09-17T15:22:29.071Z,100663.06
2022-09-17T15:25:07.401Z,100660.28
2022-09-17T15:27:43.438Z,100659.22
2022-09-17T15:30:14.892Z,100660.94
2022-09-17T15:32:48.464Z,100659.91
2022-09-17T15:35:17.720Z,100672.91
2022-09-17T15:37:55.892Z,100664.00
2022-09-17T15:40:39.479Z,100654.09
2022-09-17T15:43:28.370Z,100656.63
2022-09-17T15:45:55.669Z,100664.34
2022-09-17T15:48:42.414Z,100660.78
2022-09-17T15:51:32.439Z,100661.63
2022-09-17T15:54:01.250Z,100665.75
2022-09-17T15:56:40.238Z,100663.84
2022-09-17T15:59:25.836Z,100671.00
2022-09-17T16:01:55.759Z,100669.25
2022-09-17T16:04:35.178Z,100672.03
2022-09-17T16:07:24.829Z,100665.16
2022-09-17T16:09:53.352Z,100670.56
2022-09-17T16:12:25.246Z,100669.59
2022-09-17T16:14:54.014Z,100673.19
2022-09-17T16:17:35.657Z,100676.72
2022-09-17T16:20:12.898Z,100674.00
2022-09-17T16:22:39.431Z,100689.66
2022-09-17T16:25:06.158Z,100690.47
2022-09-17T16:27:39.463Z,100687.78
2022-09-17T16:30:10.874Z,100694.84
2022-09-17T16:32:38.124Z,100698.16
2022-09-17T16:35:05.214Z,100712.94
2022-09-17T16:37:31.673Z,100711.28
2022-09-17T16:39:58.440Z,100711.47
2022-09-17T16:42:24.946Z,100716.88
2022-09-17T16:44:51.360Z,100714.34
2022-09-17T16:47:17.781Z,100712.00
2022-09-17T16:49:44.216Z,100720.00
2022-09-17T16:52:10.681Z,100715.00
2022-09-17T16:54:37.097Z,100706.41
2022-09-17T16:57:03.587Z,100714.44
2022-09-17T16:59:30.219Z,100712.03
2022-09-17T17:01:56.779Z,100705.97
2022-09-17T17:04:24.376Z,100706.03
2022-09-17T17:06:50.815Z,100716.56
2022-09-17T17:09:17.579Z,100712.25
2022-09-17T17:11:44.099Z,100716.63
2022-09-17T17:14:14.660Z,100717.59
2022-09-17T17:16:43.470Z,100708.03
2022-09-17T17:19:09.987Z,100712.56
2022-09-17T17:21:36.441Z,100716.94
2022-09-17T17:24:03.234Z,100713.59
2022-09-17T17:26:29.772Z,100717.84
2022-09-17T17:28:56.236Z,100714.50
2022-09-17T17:31:22.755Z,100719.00
2022-09-17T17:33:49.337Z,100720.00
2022-09-17T17:36:15.819Z,100715.69
2022-09-17T17:38:42.943Z,100715.75
2022-09-17T17:41:14.651Z,100713.22
2022-09-17T17:43:41.695Z,100720.28
2022-09-17T17:46:10.264Z,100722.06
2022-09-17T17:48:37.410Z,100731.66
2022-09-17T17:51:09.624Z,100723.84
2022-09-17T17:53:36.972Z,100729.03
2022-09-17T17:56:06.658Z,100724.69
2022-09-17T17:58:34.044Z,100728.22
2022-09-17T18:01:00.943Z,100724.00
2022-09-17T18:03:27.379Z,100736.38
2022-09-17T18:05:58.451Z,100731.19
2022-09-17T18:08:25.617Z,100734.72
2022-09-17T18:10:57.122Z,100732.06
2022-09-17T18:13:24.219Z,100740.75
2022-09-17T18:15:59.050Z,100748.66
2022-09-17T18:18:31.770Z,100747.84
2022-09-17T18:21:03.895Z,100754.06
2022-09-17T18:23:30.420Z,100754.91
2022-09-17T18:25:59.691Z,100757.47
2022-09-17T18:28:28.068Z,100754.81
2022-09-17T18:30:55.440Z,100766.97
2022-09-17T18:33:24.800Z,100766.81
2022-09-17T18:35:56.794Z,100768.50
2022-09-17T18:38:27.662Z,100772.00
2022-09-17T18:40:54.116Z,100766.72
2022-09-17T18:43:20.558Z,100765.78
2022-09-17T18:45:57.519Z,100773.47
2022-09-17T18:48:24.828Z,100771.72
2022-09-17T18:51:12.430Z,100766.44
2022-09-17T18:53:39.075Z,100768.13
2022-09-17T18:56:17.117Z,100774.25
2022-09-17T18:58:48.889Z,100762.88
2022-09-17T19:01:16.269Z,100761.97
2022-09-17T19:03:42.976Z,100761.97
2022-09-17T19:06:11.232Z,100762.94
2022-09-17T19:08:38.638Z,100759.44
2022-09-17T19:11:05.434Z,100763.81
2022-09-17T19:13:40.367Z,100773.44
2022-09-17T19:16:07.874Z,100771.72
2022-09-17T19:18:34.800Z,100778.69
2022-09-17T19:21:05.924Z,100776.97
2022-09-17T19:23:32.772Z,100787.53
2022-09-17T19:26:06.971Z,100787.53
2022-09-17T19:28:34.329Z,100782.16
2022-09-17T19:31:05.962Z,100783.03
2022-09-17T19:33:32.662Z,100784.63
2022-09-17T19:36:01.219Z,100777.50
2022-09-17T19:38:27.713Z,100783.16
2022-09-17T19:41:02.985Z,100776.88
2022-09-17T19:43:30.576Z,100789.88
2022-09-17T19:46:01.729Z,100782.88
2022-09-17T19:48:29.104Z,100788.22
2022-09-17T19:50:56.888Z,100788.97
2022-09-17T19:53:24.223Z,100792.50
2022-09-17T19:55:50.657Z,100784.63
2022-09-17T19:58:17.168Z,100791.41
2022-09-17T20:00:43.950Z,100786.13
2022-09-17T20:03:10.750Z,100789.66
2022-09-17T20:05:37.270Z,100788.84
2022-09-17T20:08:04.944Z,100793.28
2022-09-17T20:10:36.370Z,100814.13
2022-09-17T20:13:03.240Z,100797.44
2022-09-17T20:15:30.059Z,100801.06
2022-09-17T20:17:56.505Z,100801.13
2022-09-17T20:20:28.257Z,100797.66
2022-09-17T20:22:55.783Z,100813.44
2022-09-17T20:25:24.034Z,100796.88
2022-09-17T20:27:50.488Z,100815.28
2022-09-17T20:30:16.937Z,100801.38
2022-09-17T20:32:43.382Z,100800.72
2022-09-17T20:35:09.819Z,100800.78
2022-09-17T20:38:32.945Z,100801.66
2022-09-17T20:40:22.780Z,100790.38
2022-09-17T20:42:49.207Z,100803.50
2022-09-17T20:45:15.651Z,100798.31
2022-09-17T20:47:42.061Z,100807.13
2022-09-17T20:50:08.515Z,100812.38
2022-09-17T20:52:34.901Z,100808.06
2022-09-17T20:55:01.397Z,100816.84
2022-09-17T20:57:30.076Z,100815.13
2022-09-17T21:00:00.349Z,100814.34
2022-09-17T21:02:27.296Z,100816.94
2022-09-17T21:04:54.130Z,100823.06
2022-09-17T21:07:20.648Z,100820.44
2022-09-17T21:09:47.407Z,100812.56
2022-09-17T21:12:13.921Z,100817.81
2022-09-17T21:14:40.393Z,100823.06
2022-09-17T21:17:06.929Z,100817.81
2022-09-17T21:19:33.376Z,100827.44
2022-09-17T21:21:59.855Z,100829.16
2022-09-17T21:24:26.325Z,100819.53
2022-09-17T21:26:54.031Z,100823.88
2022-09-17T21:29:20.760Z,100823.81
2022-09-17T21:31:47.338Z,100830.88
2022-09-17T21:34:13.968Z,100835.19
2022-09-17T21:36:41.693Z,100837.03
2022-09-17T21:39:16.757Z,100830.19
2022-09-17T21:41:44.958Z,100841.59
2022-09-17T21:44:12.208Z,100835.59
2022-09-17T21:46:40.013Z,100836.66
2022-09-17T21:49:07.236Z,100836.78
2022-09-17T21:51:37.233Z,100836.94
2022-09-17T21:54:09.414Z,100838.72
2022-09-17T21:56:36.418Z,100841.50
2022-09-17T21:59:05.852Z,100838.91
2022-09-17T22:01:40.897Z,100839.78
2022-09-17T22:04:13.057Z,100840.63
2022-09-17T22:06:40.880Z,100837.19
2022-09-17T22:09:12.430Z,100845.91
2022-09-17T22:11:38.828Z,100843.28
2022-09-17T22:14:10.828Z,100841.53
2022-09-17T22:16:40.939Z,100844.09
2022-09-17T22:19:08.630Z,100851.09
2022-09-17T22:21:37.866Z,100847.66
2022-09-17T22:24:06.021Z,100846.78
2022-09-17T22:26:35.537Z,100846.81
2022-09-17T22:29:04.840Z,100845.97
2022-09-17T22:31:31.451Z,100845.06
2022-09-17T22:33:58.215Z,100845.13
2022-09-17T22:36:26.104Z,100843.34
2022-09-17T22:38:57.497Z,100835.56
2022-09-17T22:41:26.844Z,100846.03
2022-09-17T22:43:55.147Z,100844.34
2022-09-17T22:46:24.683Z,100853.97
2022-09-17T22:48:51.515Z,100836.50
2022-09-17T22:51:18.306Z,100835.63
2022-09-17T22:53:44.872Z,100846.13
2022-09-17T22:56:15.090Z,100838.25
2022-09-17T22:58:43.413Z,100834.69
2022-09-17T23:01:18.358Z,100833.00
2022-09-17T23:03:47.180Z,100838.19
2022-09-17T23:06:16.768Z,100836.50
2022-09-17T23:08:43.251Z,100833.06
2022-09-17T23:11:17.340Z,100829.56
2022-09-17T23:13:43.945Z,100832.09
2022-09-17T23:16:11.587Z,100826.91
2022-09-17T23:18:38.441Z,100824.31
2022-09-17T23:21:13.267Z,100819.94
2022-09-17T23:23:41.407Z,100826.00
2022-09-17T23:26:12.763Z,100827.78
2022-09-17T23:28:40.849Z,100831.28
2022-09-17T23:31:14.359Z,100821.69
2022-09-17T23:33:41.480Z,100821.72
2022-09-17T23:36:12.827Z,100818.25
2022-09-17T23:38:40.956Z,100818.25
2022-09-17T23:41:38.252Z,100820.00
2022-09-17T23:44:13.734Z,100821.72
2022-09-17T23:46:42.236Z,100816.41
2022-09-17T23:49:11.417Z,100826.88
2022-09-17T23:51:37.873Z,100821.63
2022-09-17T23:54:07.975Z,100812.88
2022-09-17T23:56:34.888Z,100819.84
2022-09-17T23:59:01.942Z,100816.31
